Nearby METAR Reports

 

YAMB - Amberley, Australia
Distance from station: SSE 73km
Updated: 02/07/2022 17:30
Overcast
Overcast
 Wind from S
Wind: S 6 km/h
Temperature: 15°C
Dew Point: 15°C
Humidity: 100%
Barometer: 1016 hPa
Clouds: Overcast
Visibility: 10 km
Cloud details: Partly cloudy 305 m
Overcast 3048 m
2022/07/02 07:30 YAMB 020730Z AUTO 19003KT 9999 // SCT010 OVC100 15/15 Q1016
YBBN - Brisbane Intl Ar, Australia
Distance from station: SE 74km
Updated: 02/07/2022 17:30
Mostly cloudy
Mostly cloudy
 Wind from SW
Wind: SW 2 km/h
Temperature: 16°C
Dew Point: 15°C
Humidity: 94%
Barometer: 1016 hPa
Clouds: Mostly cloudy
Visibility: 10 km
Cloud details: Few Clouds 183 m
Partly cloudy 610 m
Mostly cloudy 2591 m
2022/07/02 07:30 YBBN 020730Z 22001KT 9999 FEW006 SCT020 BKN085 16/15 Q1016
 
YKRY - Kingaroy Arpt, Australia
Distance from station: NW 83km
Updated: 02/07/2022 15:34
NOT Current
Light drizzle, Mostly cloudy
Light drizzle, Mostly cloudy
 Wind from S
Wind: S 15 km/h
Temperature: 13°C
Dew Point: 13°C
Humidity: 100%
Barometer: 1017 hPa
Summary: Light Drizzle
Clouds: Mostly cloudy
Visibility: 10 km
Cloud details: Partly cloudy 213 m
Partly cloudy 396 m
Mostly cloudy 1158 m
2022/07/02 05:34 YKRY 020534Z AUTO 19008KT 9999 -DZ SCT007 SCT013 BKN038 13/13 Q1017
YBOK - Oakey (army/Civ), Australia
Distance from station: WSW 92km
Updated: 12/05/2022 10:00
NOT Current
Light rain, Overcast
Light rain, Overcast
 Wind from E
Wind: E 20 km/h
Temperature: 19°C
Dew Point: 18°C
Humidity: 94%
Barometer: 1018 hPa
Summary: Light rain
Clouds: Overcast
Visibility: 3 km
Cloud details: Mostly cloudy 244 m
Overcast 671 m
2022/05/12 00:00 YBOK 120000Z 09011KT 3000 -RA BKN008 OVC022 19/18 Q1018
 
YBCG - Coolangatta Aws, Australia
Distance from station: SE 162km
Updated: 02/07/2022 17:30
Light rain, Showers, Overcast
Light rain, Showers, Overcast
 Wind from calm
Wind: Calm
Temperature: 15°C
Dew Point: 14°C
Humidity: 94%
Barometer: 1016 hPa
Summary: Light rain, Showers
Clouds: Overcast
Visibility: 10 km
Cloud details: Overcast 1311 m
2022/07/02 07:30 YBCG 020730Z AUTO 00000KT 9999 -SHRA OVC043 15/14 Q1016 RF00.0/002.0
YCAS - Casino Airport, Australia
Distance from station: SSE 216km
Updated: 31/05/2022 11:00
NOT Current

 Wind from WNW
Wind: WNW 31 km/h, Gust: 52 km/h
Temperature: 19°C
Dew Point: 7°C
Humidity: 46%
Barometer: 1003 hPa
2022/05/31 01:00 YCAS 310100Z AUTO 30017G28KT //// // ////// 19/07 Q1003
 
YLIS - Lismore Arpt, Australia
Distance from station: SSE 216km
Updated: 07/05/2022 20:00
NOT Current

 Wind from varies
Wind: varies 0 km/h
2022/05/07 10:00 YLIS 071000Z AUTO /////KT //// // ////// ///// Q////
YBNA - Ballina Byron G., Australia
Distance from station: SSE 228km
Updated: 12/05/2022 10:00
NOT Current
Mostly cloudy
Mostly cloudy
 Wind from ENE
Wind: ENE 28 km/h
Temperature: 23°C
Dew Point: 17°C
Humidity: 69%
Barometer: 1020 hPa
Clouds: Mostly cloudy
Visibility: 10 km
Cloud details: Partly cloudy 945 m
Mostly cloudy 1158 m
Mostly cloudy 1494 m
2022/05/12 00:00 YBNA 120000Z AUTO 07015KT 9999 // SCT031 BKN038 BKN049 23/17 Q1020
 
YBUD - Bundaberg, Australia
Distance from station: N 235km
Updated: 02/07/2022 17:33
Partly cloudy
Partly cloudy
 Wind from E
Wind: E 9 km/h
Temperature: 17°C
Dew Point: 17°C
Humidity: 100%
Barometer: 1015 hPa
Clouds: Partly cloudy
Visibility: 10 km
Cloud details: Partly cloudy 366 m
Partly cloudy 1158 m
Partly cloudy 1585 m
2022/07/02 07:33 YBUD 020733Z AUTO 10005KT 9999 // SCT012 SCT038 SCT052 17/17 Q1015
YGFN - Grafton Arpt, Australia
Distance from station: S 311km
Updated: 02/07/2022 17:35
Mostly cloudy
Mostly cloudy
 Wind from calm
Wind: Calm
Temperature: 14°C
Dew Point: 14°C
Humidity: 100%
Barometer: 1016 hPa
Clouds: Mostly cloudy
Visibility: 4 km
Cloud details: Partly cloudy 853 m
Mostly cloudy 3200 m
2022/07/02 07:35 YGFN 020735Z AUTO 00000KT 4300 // SCT028 BKN105 14/14 Q1016
 
YGLA - Gladstone, Australia
Distance from station: NNW 372km
Updated: 02/07/2022 17:30
Overcast
Overcast
 Wind from S
Wind: S 6 km/h
Temperature: 18°C
Dew Point: 17°C
Humidity: 94%
Barometer: 1014 hPa
Clouds: Overcast
Visibility: 10 km
Cloud details: Partly cloudy 274 m
Overcast 3353 m
2022/07/02 07:30 YGLA 020730Z AUTO 18003KT 9999 // SCT009 OVC110 18/17 Q1014
YCFS - Coffs Harbour, Australia
Distance from station: S 373km
Updated: 02/07/2022 17:30
Overcast
Overcast
 Wind from SW
Wind: SW 9 km/h
Temperature: 14°C
Dew Point: 13°C
Humidity: 94%
Barometer: 1016 hPa
Clouds: Overcast
Visibility: 10 km
Cloud details: Overcast 914 m
2022/07/02 07:30 YCFS 020730Z AUTO 23005KT 9999 // OVC030 14/13 Q1016 RF00.0/004.8
 
YMOR - Moree Arpt, Australia
Distance from station: SW 381km
Updated: 02/07/2022 17:29
Partly cloudy
Partly cloudy
 Wind from WNW
Wind: WNW 9 km/h
Temperature: 9°C
Wind Chill: 7°C
Dew Point: 7°C
Humidity: 87%
Barometer: 1019 hPa
Clouds: Partly cloudy
Visibility: 10 km
Cloud details: Partly cloudy 305 m
2022/07/02 07:29 YMOR 020729Z AUTO 30005KT 9999 // SCT010 09/07 Q1019
YNBR - Narrabri, Australia
Distance from station: SW 452km
Updated: 02/07/2022 12:30
NOT Current
Mostly cloudy
Mostly cloudy
 Wind from NW
Wind: NW 13 km/h
Temperature: 15°C
Dew Point: 10°C
Humidity: 72%
Barometer: 1019 hPa
Clouds: Mostly cloudy
Visibility: 10 km
Cloud details: Mostly cloudy 427 m
Mostly cloudy 549 m
Mostly cloudy 732 m
2022/07/02 02:30 YNBR 020230Z AUTO 32007KT 9999 // BKN014 BKN018 BKN024 15/10 Q1019
 
YBRK - Rockhampton Airp, Australia
Distance from station: NNW 454km
Updated: 02/07/2022 17:30
Overcast
Overcast
 Wind from S
Wind: S 6 km/h
Temperature: 18°C
Dew Point: 17°C
Humidity: 94%
Barometer: 1015 hPa
Clouds: Overcast
Visibility: 10 km
Cloud details: Mostly cloudy 1006 m
Overcast 3200 m
2022/07/02 07:30 YBRK 020730Z AUTO 17003KT 9999 // BKN033 OVC105 18/17 Q1015
YSTW - Tamworth Airport, Australia
Distance from station: SSW 480km
Updated: 02/07/2022 17:30
Partly cloudy
Partly cloudy
 Wind from WNW
Wind: WNW 7 km/h
Temperature: 12°C
Dew Point: 10°C
Humidity: 88%
Barometer: 1017 hPa
Clouds: Partly cloudy
Visibility: 10 km
Cloud details: Partly cloudy 2286 m
2022/07/02 07:30 YSTW 020730Z AUTO 29004KT 9999 // SCT075 12/10 Q1017 RF00.0/000.0
 
YPMQ - Port Macquarie, Australia
Distance from station: S 494km
Updated: 02/07/2022 17:25
Mostly cloudy
Mostly cloudy
 Wind from WSW
Wind: WSW 9 km/h
Temperature: 13°C
Dew Point: 13°C
Humidity: 100%
Barometer: 1017 hPa
Clouds: Mostly cloudy
Visibility: 10 km
Cloud details: Partly cloudy 396 m
Partly cloudy 518 m
Mostly cloudy 671 m
2022/07/02 07:25 YPMQ 020725Z AUTO 24005KT 9999 // SCT013 SCT017 BKN022 13/13 Q1017